sensor_id;sensor_type;location;lat;lon;timestamp;pressure;altitude;pressure_sealevel;temperature;humidity
11085;BME280;5596;46.826;8.650;2023-01-29T00:01:22;96937.19;;;-0.50;100.00
11085;BME280;5596;46.826;8.650;2023-01-29T00:03:50;96951.13;;;-0.48;100.00
11085;BME280;5596;46.826;8.650;2023-01-29T00:06:18;96956.44;;;-0.48;100.00
11085;BME280;5596;46.826;8.650;2023-01-29T00:08:45;96942.38;;;-0.58;100.00
11085;BME280;5596;46.826;8.650;2023-01-29T00:11:12;96958.03;;;-0.55;100.00
11085;BME280;5596;46.826;8.650;2023-01-29T00:13:39;96939.72;;;-0.58;100.00
11085;BME280;5596;46.826;8.650;2023-01-29T00:16:06;96933.91;;;-0.62;100.00
11085;BME280;5596;46.826;8.650;2023-01-29T00:18:37;96928.75;;;-0.63;100.00
11085;BME280;5596;46.826;8.650;2023-01-29T00:21:08;96942.34;;;-0.49;100.00
11085;BME280;5596;46.826;8.650;2023-01-29T00:23:36;96933.91;;;-0.62;100.00
11085;BME280;5596;46.826;8.650;2023-01-29T00:26:04;96936.88;;;-0.74;100.00
11085;BME280;5596;46.826;8.650;2023-01-29T00:28:31;96921.06;;;-0.94;100.00
11085;BME280;5596;46.826;8.650;2023-01-29T00:31:04;96912.00;;;-1.01;100.00
11085;BME280;5596;46.826;8.650;2023-01-29T00:33:32;96909.66;;;-1.04;100.00
11085;BME280;5596;46.826;8.650;2023-01-29T00:36:01;96917.59;;;-1.04;100.00
11085;BME280;5596;46.826;8.650;2023-01-29T00:38:28;96904.63;;;-1.07;100.00
11085;BME280;5596;46.826;8.650;2023-01-29T00:40:57;96910.91;;;-1.08;100.00
11085;BME280;5596;46.826;8.650;2023-01-29T00:43:41;96918.44;;;-1.03;100.00
11085;BME280;5596;46.826;8.650;2023-01-29T00:46:26;96929.81;;;-0.93;100.00
11085;BME280;5596;46.826;8.650;2023-01-29T00:48:53;96919.56;;;-1.06;100.00
11085;BME280;5596;46.826;8.650;2023-01-29T00:51:20;96923.75;;;-1.03;100.00
11085;BME280;5596;46.826;8.650;2023-01-29T00:53:47;96927.66;;;-1.07;100.00
11085;BME280;5596;46.826;8.650;2023-01-29T00:56:15;96942.56;;;-0.97;100.00
11085;BME280;5596;46.826;8.650;2023-01-29T00:58:42;96930.00;;;-0.95;100.00
11085;BME280;5596;46.826;8.650;2023-01-29T01:01:10;96943.34;;;-0.87;100.00
11085;BME280;5596;46.826;8.650;2023-01-29T01:03:37;96935.56;;;-0.98;100.00
11085;BME280;5596;46.826;8.650;2023-01-29T01:06:08;96948.00;;;-0.98;100.00
11085;BME280;5596;46.826;8.650;2023-01-29T01:08:35;96939.22;;;-1.08;100.00
11085;BME280;5596;46.826;8.650;2023-01-29T01:11:21;96949.00;;;-1.09;100.00
11085;BME280;5596;46.826;8.650;2023-01-29T01:13:48;96948.00;;;-1.08;100.00
11085;BME280;5596;46.826;8.650;2023-01-29T01:16:18;96953.91;;;-1.14;100.00
11085;BME280;5596;46.826;8.650;2023-01-29T01:18:45;96958.91;;;-1.11;100.00
11085;BME280;5596;46.826;8.650;2023-01-29T01:21:12;96975.63;;;-1.01;100.00
11085;BME280;5596;46.826;8.650;2023-01-29T01:23:39;96978.97;;;-0.99;100.00
11085;BME280;5596;46.826;8.650;2023-01-29T01:26:09;96975.63;;;-1.01;100.00
11085;BME280;5596;46.826;8.650;2023-01-29T01:28:37;96982.19;;;-1.05;100.00
11085;BME280;5596;46.826;8.650;2023-01-29T01:31:09;96998.50;;;-1.09;100.00
11085;BME280;5596;46.826;8.650;2023-01-29T01:33:37;96998.94;;;-1.14;100.00
11085;BME280;5596;46.826;8.650;2023-01-29T01:36:05;96995.19;;;-1.21;100.00
11085;BME280;5596;46.826;8.650;2023-01-29T01:38:35;97001.59;;;-1.24;100.00
11085;BME280;5596;46.826;8.650;2023-01-29T01:41:10;97000.50;;;-1.21;100.00
11085;BME280;5596;46.826;8.650;2023-01-29T01:43:50;96998.53;;;-1.19;100.00
11085;BME280;5596;46.826;8.650;2023-01-29T01:46:18;96998.81;;;-1.22;100.00
11085;BME280;5596;46.826;8.650;2023-01-29T01:48:49;97001.47;;;-1.22;100.00
11085;BME280;5596;46.826;8.650;2023-01-29T01:51:19;97008.31;;;-1.20;100.00
11085;BME280;5596;46.826;8.650;2023-01-29T01:53:51;97005.78;;;-1.21;100.00
11085;BME280;5596;46.826;8.650;2023-01-29T01:56:25;97007.47;;;-1.20;100.00
11085;BME280;5596;46.826;8.650;2023-01-29T01:58:56;96999.81;;;-1.33;100.00
11085;BME280;5596;46.826;8.650;2023-01-29T02:01:25;97017.25;;;-1.30;100.00
11085;BME280;5596;46.826;8.650;2023-01-29T02:04:07;97014.47;;;-1.38;100.00
11085;BME280;5596;46.826;8.650;2023-01-29T02:06:53;97015.97;;;-1.36;100.00
11085;BME280;5596;46.826;8.650;2023-01-29T02:09:41;97015.97;;;-1.36;100.00
11085;BME280;5596;46.826;8.650;2023-01-29T02:12:12;97027.13;;;-1.32;100.00
11085;BME280;5596;46.826;8.650;2023-01-29T02:14:43;97034.94;;;-1.31;100.00
11085;BME280;5596;46.826;8.650;2023-01-29T02:17:12;97040.09;;;-1.29;100.00
11085;BME280;5596;46.826;8.650;2023-01-29T02:19:46;97044.69;;;-1.41;100.00
11085;BME280;5596;46.826;8.650;2023-01-29T02:25:37;97036.47;;;-1.67;100.00
11085;BME280;5596;46.826;8.650;2023-01-29T02:28:26;97041.22;;;-1.70;100.00
11085;BME280;5596;46.826;8.650;2023-01-29T02:31:01;97044.84;;;-1.71;100.00
11085;BME280;5596;46.826;8.650;2023-01-29T02:33:41;97045.22;;;-1.76;100.00
11085;BME280;5596;46.826;8.650;2023-01-29T02:36:20;97054.59;;;-1.72;100.00
11085;BME280;5596;46.826;8.650;2023-01-29T02:38:56;97062.09;;;-1.77;100.00
11085;BME280;5596;46.826;8.650;2023-01-29T02:41:28;97066.84;;;-1.80;100.00
11085;BME280;5596;46.826;8.650;2023-01-29T02:44:04;97072.00;;;-1.79;100.00
11085;BME280;5596;46.826;8.650;2023-01-29T02:46:36;97076.28;;;-1.78;100.00
11085;BME280;5596;46.826;8.650;2023-01-29T02:49:09;97082.28;;;-1.76;100.00
11085;BME280;5596;46.826;8.650;2023-01-29T02:51:42;97077.84;;;-1.75;100.00
11085;BME280;5596;46.826;8.650;2023-01-29T02:54:16;97079.94;;;-1.79;100.00
11085;BME280;5596;46.826;8.650;2023-01-29T02:56:52;97079.34;;;-1.82;100.00
11085;BME280;5596;46.826;8.650;2023-01-29T02:59:24;97076.56;;;-1.81;100.00
11085;BME280;5596;46.826;8.650;2023-01-29T03:01:53;97069.88;;;-1.85;100.00
11085;BME280;5596;46.826;8.650;2023-01-29T03:04:26;97063.19;;;-1.89;100.00
11085;BME280;5596;46.826;8.650;2023-01-29T03:06:58;97069.34;;;-1.79;100.00
11085;BME280;5596;46.826;8.650;2023-01-29T03:09:32;97071.69;;;-1.76;100.00
11085;BME280;5596;46.826;8.650;2023-01-29T03:12:03;97057.47;;;-1.84;100.00
11085;BME280;5596;46.826;8.650;2023-01-29T03:14:47;97073.63;;;-1.78;100.00
11085;BME280;5596;46.826;8.650;2023-01-29T03:17:36;97063.06;;;-1.87;100.00
11085;BME280;5596;46.826;8.650;2023-01-29T03:20:08;97073.47;;;-1.86;100.00
11085;BME280;5596;46.826;8.650;2023-01-29T03:22:40;97078.53;;;-1.83;100.00
11085;BME280;5596;46.826;8.650;2023-01-29T03:25:12;97075.44;;;-1.78;100.00
11085;BME280;5596;46.826;8.650;2023-01-29T03:27:59;97073.78;;;-1.70;100.00
11085;BME280;5596;46.826;8.650;2023-01-29T03:30:50;97071.59;;;-1.65;100.00
11085;BME280;5596;46.826;8.650;2023-01-29T03:33:44;97067.00;;;-1.63;100.00
11085;BME280;5596;46.826;8.650;2023-01-29T03:36:17;97063.09;;;-1.59;100.00
11085;BME280;5596;46.826;8.650;2023-01-29T03:38:47;97043.84;;;-1.61;100.00
11085;BME280;5596;46.826;8.650;2023-01-29T03:41:22;97060.59;;;-1.50;100.00
11085;BME280;5596;46.826;8.650;2023-01-29T03:43:58;97052.78;;;-1.52;100.00
11085;BME280;5596;46.826;8.650;2023-01-29T03:46:30;97047.63;;;-1.54;100.00
11085;BME280;5596;46.826;8.650;2023-01-29T03:49:01;97049.59;;;-1.56;100.00
11085;BME280;5596;46.826;8.650;2023-01-29T03:51:37;97044.28;;;-1.56;99.97
11085;BME280;5596;46.826;8.650;2023-01-29T03:54:12;97038.56;;;-1.61;100.00
11085;BME280;5596;46.826;8.650;2023-01-29T03:56:53;97037.56;;;-1.60;99.29
11085;BME280;5596;46.826;8.650;2023-01-29T03:59:32;97031.75;;;-1.54;97.36
11085;BME280;5596;46.826;8.650;2023-01-29T04:02:27;97022.53;;;-1.49;96.30
11085;BME280;5596;46.826;8.650;2023-01-29T04:05:03;97010.25;;;-1.50;95.38
11085;BME280;5596;46.826;8.650;2023-01-29T04:07:39;97014.72;;;-1.51;95.60
11085;BME280;5596;46.826;8.650;2023-01-29T04:10:10;97011.53;;;-1.55;95.94
11085;BME280;5596;46.826;8.650;2023-01-29T04:12:42;97001.06;;;-1.56;96.26
11085;BME280;5596;46.826;8.650;2023-01-29T04:15:14;97001.34;;;-1.59;96.67
11085;BME280;5596;46.826;8.650;2023-01-29T04:17:49;96999.66;;;-1.70;97.36
11085;BME280;5596;46.826;8.650;2023-01-29T04:20:28;97003.31;;;-1.71;97.61
11085;BME280;5596;46.826;8.650;2023-01-29T04:22:55;96996.59;;;-1.75;97.39
11085;BME280;5596;46.826;8.650;2023-01-29T04:25:24;96995.63;;;-1.74;97.53
11085;BME280;5596;46.826;8.650;2023-01-29T04:27:59;97002.88;;;-1.76;97.78
11085;BME280;5596;46.826;8.650;2023-01-29T04:30:38;96998.84;;;-1.80;97.77
11085;BME280;5596;46.826;8.650;2023-01-29T04:33:20;97002.88;;;-1.76;98.26
11085;BME280;5596;46.826;8.650;2023-01-29T04:38:46;97009.16;;;-1.58;97.17
11085;BME280;5596;46.826;8.650;2023-01-29T04:41:21;97003.59;;;-1.55;96.10
11085;BME280;5596;46.826;8.650;2023-01-29T04:43:58;96998.28;;;-1.55;95.48
11085;BME280;5596;46.826;8.650;2023-01-29T04:46:32;96991.19;;;-1.54;95.53
11085;BME280;5596;46.826;8.650;2023-01-29T04:49:12;96994.38;;;-1.50;95.61
11085;BME280;5596;46.826;8.650;2023-01-29T04:51:48;96993.84;;;-1.54;96.65
11085;BME280;5596;46.826;8.650;2023-01-29T04:54:21;96991.59;;;-1.59;97.30
11085;BME280;5596;46.826;8.650;2023-01-29T04:56:54;96978.91;;;-1.55;96.66
11085;BME280;5596;46.826;8.650;2023-01-29T04:59:27;96981.00;;;-1.59;97.13
11085;BME280;5596;46.826;8.650;2023-01-29T05:01:58;96976.66;;;-1.60;96.87
11085;BME280;5596;46.826;8.650;2023-01-29T05:04:30;96982.25;;;-1.63;97.14
11085;BME280;5596;46.826;8.650;2023-01-29T05:07:01;96985.88;;;-1.64;97.70
11085;BME280;5596;46.826;8.650;2023-01-29T05:09:30;96980.72;;;-1.65;98.21
11085;BME280;5596;46.826;8.650;2023-01-29T05:11:59;96982.41;;;-1.64;98.38
11085;BME280;5596;46.826;8.650;2023-01-29T05:14:27;96984.22;;;-1.65;98.33
11085;BME280;5596;46.826;8.650;2023-01-29T05:16:58;96992.72;;;-1.71;98.14
11085;BME280;5596;46.826;8.650;2023-01-29T05:19:26;96992.72;;;-1.71;98.76
11085;BME280;5596;46.826;8.650;2023-01-29T05:21:55;96993.69;;;-1.72;99.23
11085;BME280;5596;46.826;8.650;2023-01-29T05:24:26;96994.66;;;-1.73;99.71
11085;BME280;5596;46.826;8.650;2023-01-29T05:26:53;96993.81;;;-1.73;99.78
11085;BME280;5596;46.826;8.650;2023-01-29T05:29:41;96996.47;;;-1.73;100.00
11085;BME280;5596;46.826;8.650;2023-01-29T05:32:11;97016.81;;;-1.74;100.00
11085;BME280;5596;46.826;8.650;2023-01-29T05:34:38;97024.03;;;-1.76;100.00
11085;BME280;5596;46.826;8.650;2023-01-29T05:37:07;97038.56;;;-1.80;100.00
11085;BME280;5596;46.826;8.650;2023-01-29T05:39:34;97040.63;;;-1.83;100.00
11085;BME280;5596;46.826;8.650;2023-01-29T05:42:01;97049.94;;;-1.89;100.00
11085;BME280;5596;46.826;8.650;2023-01-29T05:44:28;97047.41;;;-2.00;100.00
11085;BME280;5596;46.826;8.650;2023-01-29T05:46:55;97050.88;;;-2.09;100.00
11085;BME280;5596;46.826;8.650;2023-01-29T05:49:22;97047.81;;;-2.14;100.00
11085;BME280;5596;46.826;8.650;2023-01-29T05:51:49;97043.34;;;-2.14;100.00
11085;BME280;5596;46.826;8.650;2023-01-29T05:54:18;97055.75;;;-2.14;100.00
11085;BME280;5596;46.826;8.650;2023-01-29T05:56:45;97052.78;;;-2.21;100.00
11085;BME280;5596;46.826;8.650;2023-01-29T05:59:13;97065.59;;;-2.16;100.00
11085;BME280;5596;46.826;8.650;2023-01-29T06:01:40;97066.84;;;-2.20;100.00
11085;BME280;5596;46.826;8.650;2023-01-29T06:04:07;97070.88;;;-2.26;100.00
11085;BME280;5596;46.826;8.650;2023-01-29T06:06:35;97078.38;;;-2.31;100.00
11085;BME280;5596;46.826;8.650;2023-01-29T06:09:02;97077.19;;;-2.38;100.00
11085;BME280;5596;46.826;8.650;2023-01-29T06:11:30;97075.09;;;-2.44;100.00
11085;BME280;5596;46.826;8.650;2023-01-29T06:13:57;97080.91;;;-2.50;100.00
11085;BME280;5596;46.826;8.650;2023-01-29T06:16:24;97083.69;;;-2.52;100.00
11085;BME280;5596;46.826;8.650;2023-01-29T06:18:51;97093.31;;;-2.51;100.00
11085;BME280;5596;46.826;8.650;2023-01-29T06:21:18;97093.72;;;-2.55;100.00
11085;BME280;5596;46.826;8.650;2023-01-29T06:23:45;97097.44;;;-2.58;100.00
11085;BME280;5596;46.826;8.650;2023-01-29T06:26:13;97102.28;;;-2.63;100.00
11085;BME280;5596;46.826;8.650;2023-01-29T06:28:42;97098.22;;;-2.67;100.00
11085;BME280;5596;46.826;8.650;2023-01-29T06:31:10;97108.56;;;-2.64;100.00
11085;BME280;5596;46.826;8.650;2023-01-29T06:33:37;97119.56;;;-2.59;100.00
11085;BME280;5596;46.826;8.650;2023-01-29T06:36:05;97126.25;;;-2.55;100.00
11085;BME280;5596;46.826;8.650;2023-01-29T06:38:32;97128.88;;;-2.55;100.00
11085;BME280;5596;46.826;8.650;2023-01-29T06:41:06;97141.16;;;-2.54;100.00
11085;BME280;5596;46.826;8.650;2023-01-29T06:43:33;97148.91;;;-2.62;100.00
11085;BME280;5596;46.826;8.650;2023-01-29T06:46:02;97149.53;;;-2.70;100.00
11085;BME280;5596;46.826;8.650;2023-01-29T06:48:33;97156.63;;;-2.70;100.00
11085;BME280;5596;46.826;8.650;2023-01-29T06:51:01;97177.66;;;-2.69;100.00
11085;BME280;5596;46.826;8.650;2023-01-29T06:53:28;97174.78;;;-2.65;100.00
11085;BME280;5596;46.826;8.650;2023-01-29T06:55:55;97177.00;;;-2.61;100.00
11085;BME280;5596;46.826;8.650;2023-01-29T06:58:22;97192.88;;;-2.61;100.00
11085;BME280;5596;46.826;8.650;2023-01-29T07:00:49;97201.28;;;-2.56;100.00
11085;BME280;5596;46.826;8.650;2023-01-29T07:03:18;97203.22;;;-2.58;100.00
11085;BME280;5596;46.826;8.650;2023-01-29T07:05:50;97203.84;;;-2.65;100.00
11085;BME280;5596;46.826;8.650;2023-01-29T07:08:17;97198.22;;;-2.72;100.00
11085;BME280;5596;46.826;8.650;2023-01-29T07:10:47;97207.06;;;-2.83;100.00
11085;BME280;5596;46.826;8.650;2023-01-29T07:13:14;97201.88;;;-2.84;100.00
11085;BME280;5596;46.826;8.650;2023-01-29T07:15:41;97208.13;;;-2.85;100.00
11085;BME280;5596;46.826;8.650;2023-01-29T07:18:09;97214.97;;;-2.83;100.00
11085;BME280;5596;46.826;8.650;2023-01-29T07:20:39;97217.50;;;-2.81;100.00
11085;BME280;5596;46.826;8.650;2023-01-29T07:23:10;97210.53;;;-2.82;100.00
11085;BME280;5596;46.826;8.650;2023-01-29T07:25:37;97202.72;;;-2.84;100.00
11085;BME280;5596;46.826;8.650;2023-01-29T07:28:06;97197.88;;;-2.79;100.00
11085;BME280;5596;46.826;8.650;2023-01-29T07:30:34;97201.56;;;-2.70;100.00
11085;BME280;5596;46.826;8.650;2023-01-29T07:33:02;97186.00;;;-2.73;100.00
11085;BME280;5596;46.826;8.650;2023-01-29T07:35:29;97187.72;;;-2.83;100.00
11085;BME280;5596;46.826;8.650;2023-01-29T07:37:57;97201.66;;;-2.81;100.00
11085;BME280;5596;46.826;8.650;2023-01-29T07:40:25;97200.31;;;-2.87;100.00
11085;BME280;5596;46.826;8.650;2023-01-29T07:42:56;97186.03;;;-2.84;100.00
11085;BME280;5596;46.826;8.650;2023-01-29T07:45:23;97185.50;;;-2.78;100.00
11085;BME280;5596;46.826;8.650;2023-01-29T07:47:51;97187.19;;;-2.77;100.00
11085;BME280;5596;46.826;8.650;2023-01-29T07:50:20;97175.66;;;-2.76;100.00
11085;BME280;5596;46.826;8.650;2023-01-29T07:52:47;97169.41;;;-2.75;100.00
11085;BME280;5596;46.826;8.650;2023-01-29T07:55:15;97157.59;;;-2.71;100.00
11085;BME280;5596;46.826;8.650;2023-01-29T07:57:42;97149.41;;;-2.68;100.00
11085;BME280;5596;46.826;8.650;2023-01-29T08:00:10;97145.69;;;-2.65;100.00
11085;BME280;5596;46.826;8.650;2023-01-29T08:02:38;97148.47;;;-2.67;100.00
11085;BME280;5596;46.826;8.650;2023-01-29T08:05:05;97144.56;;;-2.63;100.00
11085;BME280;5596;46.826;8.650;2023-01-29T08:07:32;97124.97;;;-2.60;100.00
11085;BME280;5596;46.826;8.650;2023-01-29T08:09:59;97114.16;;;-2.57;100.00
11085;BME280;5596;46.826;8.650;2023-01-29T08:12:27;97102.19;;;-2.52;100.00
11085;BME280;5596;46.826;8.650;2023-01-29T08:14:54;97107.13;;;-2.47;100.00
11085;BME280;5596;46.826;8.650;2023-01-29T08:17:21;97100.03;;;-2.37;100.00
11085;BME280;5596;46.826;8.650;2023-01-29T08:19:48;97094.94;;;-2.29;100.00
11085;BME280;5596;46.826;8.650;2023-01-29T08:22:15;97096.09;;;-2.22;100.00
11085;BME280;5596;46.826;8.650;2023-01-29T08:24:43;97096.94;;;-2.12;99.84
11085;BME280;5596;46.826;8.650;2023-01-29T08:27:09;97104.03;;;-2.12;98.73
11085;BME280;5596;46.826;8.650;2023-01-29T08:29:38;97093.91;;;-2.07;99.14
11085;BME280;5596;46.826;8.650;2023-01-29T08:32:08;97087.66;;;-2.06;99.22
11085;BME280;5596;46.826;8.650;2023-01-29T08:34:35;97084.38;;;-1.89;97.47
11085;BME280;5596;46.826;8.650;2023-01-29T08:37:02;97075.44;;;-1.88;96.84
11085;BME280;5596;46.826;8.650;2023-01-29T08:39:29;97066.50;;;-1.87;96.72
11085;BME280;5596;46.826;8.650;2023-01-29T08:41:56;97070.72;;;-1.75;96.37
11085;BME280;5596;46.826;8.650;2023-01-29T08:44:23;97073.13;;;-1.72;95.47
11085;BME280;5596;46.826;8.650;2023-01-29T08:46:51;97077.44;;;-1.71;96.38
11085;BME280;5596;46.826;8.650;2023-01-29T08:49:18;97075.06;;;-1.74;96.18
11085;BME280;5596;46.826;8.650;2023-01-29T08:51:45;97076.44;;;-1.70;95.75
11085;BME280;5596;46.826;8.650;2023-01-29T08:54:13;97076.88;;;-1.65;95.99
11085;BME280;5596;46.826;8.650;2023-01-29T08:56:39;97072.97;;;-1.61;96.04
11085;BME280;5596;46.826;8.650;2023-01-29T08:59:06;97082.59;;;-1.60;96.50
11085;BME280;5596;46.826;8.650;2023-01-29T09:01:33;97081.06;;;-1.53;96.45
11085;BME280;5596;46.826;8.650;2023-01-29T09:04:01;97076.34;;;-1.49;96.99
11085;BME280;5596;46.826;8.650;2023-01-29T09:06:28;97078.44;;;-1.43;96.70
11085;BME280;5596;46.826;8.650;2023-01-29T09:08:55;97077.59;;;-1.34;96.70
11085;BME280;5596;46.826;8.650;2023-01-29T09:11:22;97077.75;;;-1.26;97.00
11085;BME280;5596;46.826;8.650;2023-01-29T09:13:49;97079.28;;;-1.23;97.06
11085;BME280;5596;46.826;8.650;2023-01-29T09:16:16;97067.97;;;-1.25;97.04
11085;BME280;5596;46.826;8.650;2023-01-29T09:18:43;97068.81;;;-1.15;96.91
11085;BME280;5596;46.826;8.650;2023-01-29T09:21:12;97064.09;;;-1.11;95.88
11085;BME280;5596;46.826;8.650;2023-01-29T09:23:39;97065.47;;;-0.98;95.19
11085;BME280;5596;46.826;8.650;2023-01-29T09:26:08;97068.25;;;-0.90;96.67
11085;BME280;5596;46.826;8.650;2023-01-29T09:28:35;97067.38;;;-0.81;93.51
11085;BME280;5596;46.826;8.650;2023-01-29T09:31:03;97071.69;;;-0.70;92.21
11085;BME280;5596;46.826;8.650;2023-01-29T09:33:30;97069.03;;;-0.60;92.79
11085;BME280;5596;46.826;8.650;2023-01-29T09:35:57;97077.34;;;-0.46;92.23
11085;BME280;5596;46.826;8.650;2023-01-29T09:38:25;97078.72;;;-0.42;93.51
11085;BME280;5596;46.826;8.650;2023-01-29T09:40:58;97085.97;;;-0.34;95.23
11085;BME280;5596;46.826;8.650;2023-01-29T09:43:42;97075.03;;;-0.21;93.57
11085;BME280;5596;46.826;8.650;2023-01-29T09:46:17;97082.97;;;-0.12;93.76
11085;BME280;5596;46.826;8.650;2023-01-29T09:48:47;97080.56;;;-0.05;91.26
11085;BME280;5596;46.826;8.650;2023-01-29T09:51:25;97089.47;;;0.04;89.81
11085;BME280;5596;46.826;8.650;2023-01-29T09:54:00;97103.91;;;0.19;90.80
11085;BME280;5596;46.826;8.650;2023-01-29T09:56:31;97095.56;;;0.14;93.20
11085;BME280;5596;46.826;8.650;2023-01-29T09:58:58;97119.56;;;0.22;93.85
11085;BME280;5596;46.826;8.650;2023-01-29T10:01:31;97108.34;;;0.28;94.01
11085;BME280;5596;46.826;8.650;2023-01-29T10:04:28;97106.19;;;0.41;91.47
11085;BME280;5596;46.826;8.650;2023-01-29T10:07:12;97110.78;;;0.66;89.51
11085;BME280;5596;46.826;8.650;2023-01-29T10:10:03;97107.44;;;0.82;86.60
11085;BME280;5596;46.826;8.650;2023-01-29T10:12:49;97116.84;;;0.94;86.88
11085;BME280;5596;46.826;8.650;2023-01-29T10:15:28;97115.72;;;0.97;85.25
11085;BME280;5596;46.826;8.650;2023-01-29T10:18:15;97114.88;;;0.96;85.12
11085;BME280;5596;46.826;8.650;2023-01-29T10:20:52;97114.53;;;1.09;84.80
11085;BME280;5596;46.826;8.650;2023-01-29T10:23:29;97113.44;;;1.20;83.93
11085;BME280;5596;46.826;8.650;2023-01-29T10:25:59;97115.91;;;1.39;82.45
11085;BME280;5596;46.826;8.650;2023-01-29T10:28:30;97117.66;;;1.48;82.58
11085;BME280;5596;46.826;8.650;2023-01-29T10:31:03;97118.44;;;1.66;83.44
11085;BME280;5596;46.826;8.650;2023-01-29T10:33:35;97121.47;;;1.71;82.68
11085;BME280;5596;46.826;8.650;2023-01-29T10:36:12;97121.75;;;1.86;82.73
11085;BME280;5596;46.826;8.650;2023-01-29T10:38:44;97122.75;;;1.85;83.15
11085;BME280;5596;46.826;8.650;2023-01-29T10:41:25;97120.53;;;1.80;82.74
11085;BME280;5596;46.826;8.650;2023-01-29T10:44:07;97120.75;;;1.87;82.91
11085;BME280;5596;46.826;8.650;2023-01-29T10:46:53;97129.31;;;1.99;83.52
11085;BME280;5596;46.826;8.650;2023-01-29T10:49:36;97133.22;;;2.12;83.55
11085;BME280;5596;46.826;8.650;2023-01-29T10:52:23;97142.09;;;2.21;82.63
11085;BME280;5596;46.826;8.650;2023-01-29T10:55:02;97143.47;;;2.33;82.02
11085;BME280;5596;46.826;8.650;2023-01-29T10:57:45;97145.09;;;2.60;81.59
11085;BME280;5596;46.826;8.650;2023-01-29T11:00:19;97142.28;;;2.70;81.51
11085;BME280;5596;46.826;8.650;2023-01-29T11:02:49;97144.81;;;2.79;80.15
11085;BME280;5596;46.826;8.650;2023-01-29T11:05:22;97147.16;;;2.82;79.96
11085;BME280;5596;46.826;8.650;2023-01-29T11:08:00;97150.22;;;3.03;79.35
11085;BME280;5596;46.826;8.650;2023-01-29T11:10:31;97150.56;;;3.17;79.29
11085;BME280;5596;46.826;8.650;2023-01-29T11:13:01;97149.41;;;3.27;78.62
11085;BME280;5596;46.826;8.650;2023-01-29T11:15:31;97155.91;;;3.41;78.56
11085;BME280;5596;46.826;8.650;2023-01-29T11:18:05;97149.94;;;3.47;77.59
11085;BME280;5596;46.826;8.650;2023-01-29T11:20:35;97147.25;;;3.55;77.58
11085;BME280;5596;46.826;8.650;2023-01-29T11:23:02;97145.56;;;3.78;76.24
11085;BME280;5596;46.826;8.650;2023-01-29T11:25:30;97146.22;;;3.97;75.12
11085;BME280;5596;46.826;8.650;2023-01-29T11:27:59;97141.84;;;4.12;74.55
11085;BME280;5596;46.826;8.650;2023-01-29T11:30:30;97143.09;;;4.40;72.80
11085;BME280;5596;46.826;8.650;2023-01-29T11:33:08;97137.28;;;4.76;71.73
11085;BME280;5596;46.826;8.650;2023-01-29T11:35:36;97138.78;;;5.09;70.12
11085;BME280;5596;46.826;8.650;2023-01-29T11:38:12;97126.56;;;5.29;68.34
11085;BME280;5596;46.826;8.650;2023-01-29T11:40:43;97118.66;;;5.59;68.18
11085;BME280;5596;46.826;8.650;2023-01-29T11:45:56;97115.03;;;5.89;64.48
11085;BME280;5596;46.826;8.650;2023-01-29T11:48:31;97114.84;;;5.30;66.13
11085;BME280;5596;46.826;8.650;2023-01-29T11:50:59;97110.00;;;5.03;69.57
11085;BME280;5596;46.826;8.650;2023-01-29T11:53:34;97102.34;;;5.46;67.41
11085;BME280;5596;46.826;8.650;2023-01-29T11:56:05;97103.00;;;5.48;67.67
11085;BME280;5596;46.826;8.650;2023-01-29T11:58:41;97090.13;;;5.81;66.25
11085;BME280;5596;46.826;8.650;2023-01-29T12:01:11;97087.81;;;6.00;64.36
11085;BME280;5596;46.826;8.650;2023-01-29T12:03:40;97067.47;;;6.06;64.98
11085;BME280;5596;46.826;8.650;2023-01-29T12:06:17;97074.41;;;6.15;62.89
11085;BME280;5596;46.826;8.650;2023-01-29T12:08:54;97076.72;;;5.66;64.45
11085;BME280;5596;46.826;8.650;2023-01-29T12:11:28;61776.25;;;-141.59;100.00
11085;BME280;5596;46.826;8.650;2023-01-29T12:13:56;61776.25;;;-141.59;100.00
11085;BME280;5596;46.826;8.650;2023-01-29T12:16:29;61776.25;;;-141.59;100.00
11085;BME280;5596;46.826;8.650;2023-01-29T12:19:04;61776.25;;;-141.59;100.00
11085;BME280;5596;46.826;8.650;2023-01-29T12:21:42;61776.25;;;-141.59;100.00
11085;BME280;5596;46.826;8.650;2023-01-29T12:24:28;61776.25;;;-141.59;100.00
11085;BME280;5596;46.826;8.650;2023-01-29T12:27:04;61776.25;;;-141.59;100.00
11085;BME280;5596;46.826;8.650;2023-01-29T12:29:39;61776.25;;;-141.59;100.00
11085;BME280;5596;46.826;8.650;2023-01-29T12:32:13;61776.25;;;-141.59;100.00
11085;BME280;5596;46.826;8.650;2023-01-29T12:34:47;61776.25;;;-141.59;100.00
11085;BME280;5596;46.826;8.650;2023-01-29T12:37:20;61776.25;;;-141.59;100.00
11085;BME280;5596;46.826;8.650;2023-01-29T12:39:50;61776.25;;;-141.59;100.00
11085;BME280;5596;46.826;8.650;2023-01-29T12:42:19;61776.25;;;-141.59;100.00
11085;BME280;5596;46.826;8.650;2023-01-29T12:44:50;61776.25;;;-141.59;100.00
11085;BME280;5596;46.826;8.650;2023-01-29T12:47:24;61776.25;;;-141.59;100.00
11085;BME280;5596;46.826;8.650;2023-01-29T12:49:54;61776.25;;;-141.59;100.00
11085;BME280;5596;46.826;8.650;2023-01-29T12:52:32;61776.25;;;-141.59;100.00
11085;BME280;5596;46.826;8.650;2023-01-29T12:55:06;61776.25;;;-141.59;100.00
11085;BME280;5596;46.826;8.650;2023-01-29T12:57:42;61776.25;;;-141.59;100.00
11085;BME280;5596;46.826;8.650;2023-01-29T13:00:14;61776.25;;;-141.59;100.00
11085;BME280;5596;46.826;8.650;2023-01-29T13:02:50;61776.25;;;-141.59;100.00
11085;BME280;5596;46.826;8.650;2023-01-29T13:05:23;61776.25;;;-141.59;100.00
11085;BME280;5596;46.826;8.650;2023-01-29T13:07:56;61776.25;;;-141.59;100.00
11085;BME280;5596;46.826;8.650;2023-01-29T13:10:28;61776.25;;;-141.59;100.00
11085;BME280;5596;46.826;8.650;2023-01-29T13:12:59;61776.25;;;-141.59;100.00
11085;BME280;5596;46.826;8.650;2023-01-29T13:15:32;61776.25;;;-141.59;100.00
11085;BME280;5596;46.826;8.650;2023-01-29T13:20:54;61776.25;;;-141.59;100.00
11085;BME280;5596;46.826;8.650;2023-01-29T13:23:29;61776.25;;;-141.59;100.00
11085;BME280;5596;46.826;8.650;2023-01-29T13:25:58;61776.25;;;-141.59;100.00
11085;BME280;5596;46.826;8.650;2023-01-29T13:28:27;61776.25;;;-141.59;100.00
11085;BME280;5596;46.826;8.650;2023-01-29T13:31:13;61776.25;;;-141.59;100.00
11085;BME280;5596;46.826;8.650;2023-01-29T13:33:42;61776.25;;;-141.59;100.00
11085;BME280;5596;46.826;8.650;2023-01-29T13:36:20;61776.25;;;-141.59;100.00
11085;BME280;5596;46.826;8.650;2023-01-29T13:38:56;61776.25;;;-141.59;100.00
11085;BME280;5596;46.826;8.650;2023-01-29T13:41:35;61776.25;;;-141.59;100.00